Time;durP1;ratioP1;P1;durP2;ratioP2;P2;SDS_P1;SDS_P2;PMS_P1;PMS_P2;Temp;Humidity;BMP_temperature;BMP_pressure;BME280_temperature;BME280_humidity;BME280_pressure;Samples;Min_cycle;Max_cycle;Signal;HPM_P1;HPM_P2
2021/12/20 00:00:27;;;;;;;9.20;8.90;;;4.00;99.90;;;;;;5102751;28;20237;-80
2021/12/20 00:02:58;;;;;;;9.60;9.30;;;4.00;99.90;;;;;;5103422;28;20221;-81
2021/12/20 00:05:32;;;;;;;9.33;9.03;;;3.90;99.90;;;;;;5103143;28;20237;-81
2021/12/20 00:08:00;;;;;;;9.20;8.90;;;3.90;99.90;;;;;;5102851;28;20222;-81
2021/12/20 00:10:30;;;;;;;9.50;9.20;;;3.90;99.90;;;;;;5102131;28;20241;-81
2021/12/20 00:12:57;;;;;;;9.60;9.30;;;3.90;99.90;;;;;;5102223;28;20700;-81
2021/12/20 00:15:28;;;;;;;9.30;9.00;;;3.90;99.90;;;;;;5102794;28;20247;-81
2021/12/20 00:17:56;;;;;;;9.50;9.20;;;3.90;99.90;;;;;;5102365;28;20221;-81
2021/12/20 00:20:24;;;;;;;9.33;9.03;;;3.90;99.90;;;;;;5102639;28;20298;-81
2021/12/20 00:25:35;;;;;;;9.40;9.10;;;3.90;99.90;;;;;;5101669;28;20229;-81
2021/12/20 00:28:03;;;;;;;9.20;8.90;;;3.90;99.90;;;;;;5110846;28;20213;-81
2021/12/20 00:30:32;;;;;;;9.30;9.00;;;3.90;99.90;;;;;;5117489;28;20237;-81
2021/12/20 00:33:00;;;;;;;9.13;8.83;;;4.00;99.90;;;;;;5117520;28;20294;-80
2021/12/20 00:35:28;;;;;;;9.30;9.00;;;4.00;99.90;;;;;;5115944;28;20213;-81
2021/12/20 00:40:47;;;;;;;9.20;8.90;;;4.10;99.90;;;;;;5118804;28;20213;-81
2021/12/20 00:43:15;;;;;;;9.30;9.00;;;4.00;99.90;;;;;;5119372;28;20228;-81
2021/12/20 00:45:43;;;;;;;9.10;8.80;;;4.00;99.90;;;;;;5137743;22;20267;-81
2021/12/20 00:48:11;;;;;;;9.20;8.90;;;4.10;99.90;;;;;;5121769;27;20229;-83
2021/12/20 00:50:41;;;;;;;9.07;8.77;;;4.00;99.90;;;;;;5120625;27;20313;-84
2021/12/20 00:53:09;;;;;;;8.87;8.60;;;4.00;99.90;;;;;;5121026;27;20232;-82
2021/12/20 00:55:37;;;;;;;9.30;9.00;;;4.10;99.90;;;;;;5107443;27;20287;-82
2021/12/20 00:58:07;;;;;;;9.03;8.73;;;4.10;99.90;;;;;;5096646;28;20226;-81
2021/12/20 01:00:38;;;;;;;9.40;9.10;;;4.10;99.90;;;;;;5104687;28;20229;-82
2021/12/20 01:03:08;;;;;;;9.30;9.00;;;4.10;99.90;;;;;;5103432;28;20287;-81
2021/12/20 01:05:38;;;;;;;9.20;8.90;;;4.10;99.90;;;;;;5108580;28;20247;-83
2021/12/20 01:08:08;;;;;;;9.20;8.90;;;4.10;99.90;;;;;;5108643;28;20244;-81
2021/12/20 01:10:39;;;;;;;9.30;9.00;;;4.10;99.90;;;;;;5101264;28;20233;-83
2021/12/20 01:13:08;;;;;;;9.10;8.80;;;4.10;99.90;;;;;;5100925;28;20265;-83
2021/12/20 01:15:41;;;;;;;9.20;8.90;;;4.10;99.90;;;;;;5101484;28;20264;-82
2021/12/20 01:18:09;;;;;;;9.00;8.70;;;4.20;99.90;;;;;;5100488;28;20221;-82
2021/12/20 01:20:37;;;;;;;9.17;8.87;;;4.20;99.90;;;;;;5100371;28;20233;-82
2021/12/20 01:23:06;;;;;;;9.10;8.80;;;4.10;99.90;;;;;;5080411;28;20329;-82
2021/12/20 01:25:34;;;;;;;9.20;8.90;;;4.10;99.90;;;;;;5081329;28;20689;-81
2021/12/20 01:28:02;;;;;;;9.30;9.00;;;4.10;99.90;;;;;;5083889;28;20230;-81
2021/12/20 01:30:31;;;;;;;9.13;8.83;;;4.10;99.90;;;;;;5098171;28;20234;-80
2021/12/20 01:32:59;;;;;;;9.10;8.80;;;4.20;99.90;;;;;;5098731;28;20276;-81
2021/12/20 01:35:28;;;;;;;9.50;9.20;;;4.20;99.90;;;;;;5098850;28;20222;-81
2021/12/20 01:37:58;;;;;;;9.30;9.00;;;4.20;99.90;;;;;;5107668;28;20236;-80
2021/12/20 01:40:26;;;;;;;9.30;9.00;;;4.20;99.90;;;;;;5117840;27;20225;-81
2021/12/20 01:42:56;;;;;;;9.23;8.93;;;4.20;99.90;;;;;;5118997;28;20235;-80
2021/12/20 01:45:27;;;;;;;9.33;9.03;;;4.20;99.90;;;;;;5118239;28;20248;-80
2021/12/20 01:48:07;;;;;;;9.40;9.10;;;4.20;99.90;;;;;;5118952;28;20224;-81
2021/12/20 01:50:49;;;;;;;9.00;8.70;;;4.20;99.90;;;;;;5118598;28;20241;-80
2021/12/20 01:53:21;;;;;;;8.80;8.60;;;4.10;99.90;;;;;;5117434;28;20215;-82
2021/12/20 01:55:51;;;;;;;9.30;9.00;;;4.10;99.90;;;;;;5107461;28;20283;-82
2021/12/20 01:58:19;;;;;;;8.90;8.60;;;4.10;99.90;;;;;;5106902;28;20209;-82
2021/12/20 02:03:56;;;;;;;9.00;8.70;;;4.10;99.90;;;;;;5044306;28;20294;-81
2021/12/20 02:06:29;;;;;;;9.23;8.93;;;4.20;99.90;;;;;;5042965;28;20231;-82
2021/12/20 02:08:57;;;;;;;9.00;8.70;;;4.20;99.90;;;;;;5075920;28;20222;-82
2021/12/20 02:11:25;;;;;;;9.00;8.70;;;4.10;99.90;;;;;;5104824;28;20237;-82
2021/12/20 02:13:53;;;;;;;9.10;8.80;;;4.10;99.90;;;;;;5104641;28;20229;-82
2021/12/20 02:16:21;;;;;;;9.30;9.00;;;4.10;99.90;;;;;;5104717;28;20291;-81
2021/12/20 02:18:51;;;;;;;9.10;8.80;;;4.10;99.90;;;;;;5104321;28;20218;-82
2021/12/20 02:21:20;;;;;;;9.17;8.87;;;4.20;99.90;;;;;;5102898;28;20233;-82
2021/12/20 02:23:51;;;;;;;8.97;8.67;;;4.20;99.90;;;;;;5102559;28;20229;-83
2021/12/20 02:26:20;;;;;;;9.00;8.70;;;4.20;99.90;;;;;;5100773;28;20229;-81
2021/12/20 02:28:51;;;;;;;9.20;8.90;;;4.10;99.90;;;;;;5102096;28;20222;-82
2021/12/20 02:37:19;;;;;;;9.00;8.70;;;4.20;99.90;;;;;;5100959;28;20316;-83
2021/12/20 02:39:47;;;;;;;9.30;9.00;;;4.20;99.90;;;;;;5101022;28;20218;-82
2021/12/20 02:42:20;;;;;;;9.10;8.80;;;4.20;99.90;;;;;;5100840;28;20299;-81
2021/12/20 02:44:59;;;;;;;9.23;8.93;;;4.20;99.90;;;;;;5099395;28;20248;-82
2021/12/20 02:47:29;;;;;;;9.30;9.00;;;4.10;99.90;;;;;;5099293;28;20240;-82
2021/12/20 02:49:58;;;;;;;9.10;8.80;;;4.10;99.90;;;;;;5099656;28;20225;-81
2021/12/20 02:52:27;;;;;;;9.00;8.70;;;4.10;99.90;;;;;;5101679;28;20233;-82
2021/12/20 02:54:55;;;;;;;8.83;8.63;;;4.10;99.90;;;;;;5102940;28;20291;-83
2021/12/20 02:57:23;;;;;;;9.13;8.83;;;4.10;99.90;;;;;;5103282;28;20260;-82
2021/12/20 02:59:50;;;;;;;9.37;9.07;;;4.20;99.90;;;;;;5102832;28;20226;-82
2021/12/20 03:02:21;;;;;;;9.27;8.97;;;4.20;99.90;;;;;;5102351;28;20233;-82
2021/12/20 03:04:48;;;;;;;9.40;9.10;;;4.20;99.90;;;;;;5102711;28;20233;-82
2021/12/20 03:07:22;;;;;;;9.20;8.90;;;4.30;99.90;;;;;;5102869;28;20221;-82
2021/12/20 03:09:57;;;;;;;9.30;9.00;;;4.20;99.90;;;;;;5103182;28;20278;-81
2021/12/20 03:12:27;;;;;;;9.30;9.00;;;4.20;99.90;;;;;;5102751;28;20242;-82
2021/12/20 03:15:02;;;;;;;9.50;9.20;;;4.20;99.90;;;;;;5102721;28;20247;-82
2021/12/20 03:17:30;;;;;;;9.30;9.00;;;4.20;99.90;;;;;;5103186;28;20236;-82
2021/12/20 03:19:57;;;;;;;9.20;8.90;;;4.20;99.90;;;;;;5103640;28;20233;-82
2021/12/20 03:22:25;;;;;;;9.30;9.00;;;4.20;99.90;;;;;;5103768;28;20256;-82
2021/12/20 03:24:54;;;;;;;9.10;8.80;;;4.20;99.90;;;;;;5102792;28;20319;-82
2021/12/20 03:27:22;;;;;;;9.20;8.90;;;4.20;99.90;;;;;;5103396;28;20229;-82
2021/12/20 03:29:49;;;;;;;9.40;9.10;;;4.30;99.90;;;;;;5108137;28;20233;-82
2021/12/20 03:32:17;;;;;;;9.40;9.10;;;4.20;99.90;;;;;;5107678;28;20238;-82
2021/12/20 03:34:45;;;;;;;9.40;9.10;;;4.10;99.90;;;;;;5108546;28;20233;-81
2021/12/20 03:37:12;;;;;;;9.47;9.17;;;4.10;99.90;;;;;;5108210;28;20233;-82
2021/12/20 03:39:40;;;;;;;9.17;8.87;;;4.10;99.90;;;;;;5107231;28;20291;-82
2021/12/20 03:42:10;;;;;;;9.30;9.00;;;4.00;99.90;;;;;;5105143;28;20237;-82
2021/12/20 03:44:43;;;;;;;9.23;8.93;;;4.00;99.90;;;;;;5104123;28;20237;-82
2021/12/20 03:47:11;;;;;;;9.27;8.97;;;4.00;99.90;;;;;;5103358;28;20240;-82
2021/12/20 03:49:40;;;;;;;9.20;8.90;;;4.10;99.90;;;;;;5102595;28;20225;-82
2021/12/20 03:52:09;;;;;;;9.53;9.23;;;4.10;99.90;;;;;;5103381;28;20233;-82
2021/12/20 03:54:37;;;;;;;9.20;8.90;;;4.00;99.90;;;;;;5120598;28;20229;-80
2021/12/20 03:57:06;;;;;;;9.37;9.07;;;4.00;99.90;;;;;;5105115;28;20226;-82
2021/12/20 03:59:35;;;;;;;9.30;9.00;;;4.00;99.90;;;;;;5100341;28;20229;-82
2021/12/20 04:02:05;;;;;;;9.40;9.10;;;4.10;99.90;;;;;;5100530;28;20237;-82
2021/12/20 04:04:32;;;;;;;9.20;8.90;;;4.10;99.90;;;;;;5098515;28;20233;-82
2021/12/20 04:07:00;;;;;;;9.33;9.03;;;4.10;99.90;;;;;;5108239;28;20279;-82
2021/12/20 04:09:28;;;;;;;9.30;9.00;;;4.10;99.90;;;;;;5102469;28;20291;-82
2021/12/20 04:11:55;;;;;;;9.40;9.10;;;4.10;99.90;;;;;;5101646;28;20233;-82
2021/12/20 04:14:23;;;;;;;9.43;9.13;;;4.20;99.90;;;;;;5099703;28;20238;-82
2021/12/20 04:16:52;;;;;;;9.50;9.20;;;4.20;99.90;;;;;;5099767;28;20234;-82
2021/12/20 04:19:20;;;;;;;9.40;9.10;;;4.20;99.90;;;;;;5101030;28;20280;-82
2021/12/20 04:21:47;;;;;;;9.60;9.30;;;4.20;99.90;;;;;;5100423;28;20229;-82
2021/12/20 04:24:15;;;;;;;9.40;9.10;;;4.10;99.90;;;;;;5100679;28;20229;-82
2021/12/20 04:26:43;;;;;;;9.30;9.00;;;4.10;99.90;;;;;;5104423;28;20256;-82
2021/12/20 04:29:10;;;;;;;9.23;8.93;;;4.10;99.90;;;;;;5107570;28;20233;-82
2021/12/20 04:31:38;;;;;;;9.70;9.40;;;4.10;99.90;;;;;;5107295;28;20234;-82
2021/12/20 04:34:07;;;;;;;9.53;9.23;;;4.10;99.90;;;;;;5116416;28;20245;-80
2021/12/20 04:36:35;;;;;;;9.70;9.40;;;4.10;99.90;;;;;;5116732;28;20221;-82
2021/12/20 04:39:04;;;;;;;9.70;9.40;;;4.00;99.90;;;;;;5115984;28;20221;-81
2021/12/20 04:41:32;;;;;;;9.50;9.20;;;4.00;99.90;;;;;;5115047;28;20289;-82
2021/12/20 04:44:00;;;;;;;9.60;9.30;;;4.00;99.90;;;;;;5109353;28;20287;-82
2021/12/20 04:46:27;;;;;;;9.47;9.17;;;4.10;99.90;;;;;;5107163;28;20229;-82
2021/12/20 04:48:55;;;;;;;9.70;9.40;;;4.10;99.90;;;;;;5107943;28;20230;-82
2021/12/20 04:51:24;;;;;;;9.80;9.50;;;4.20;99.90;;;;;;5106048;28;20233;-82
2021/12/20 04:53:52;;;;;;;9.53;9.23;;;4.20;99.90;;;;;;5106437;28;20229;-81
2021/12/20 04:56:19;;;;;;;9.67;9.37;;;4.10;99.90;;;;;;5105084;28;20237;-82
2021/12/20 04:58:47;;;;;;;9.53;9.23;;;3.90;99.90;;;;;;5105055;28;20307;-82
2021/12/20 05:01:14;;;;;;;9.67;9.37;;;3.90;99.90;;;;;;5105159;28;20230;-82
2021/12/20 05:03:42;;;;;;;9.80;9.50;;;3.80;99.90;;;;;;5104100;28;20236;-82
2021/12/20 05:06:10;;;;;;;9.43;9.13;;;3.80;99.90;;;;;;5103113;28;20286;-81
2021/12/20 05:08:47;;;;;;;9.50;9.20;;;3.80;99.90;;;;;;5103217;28;20233;-82
2021/12/20 05:11:15;;;;;;;9.30;9.00;;;3.80;99.90;;;;;;5102794;28;20308;-82
2021/12/20 05:13:43;;;;;;;9.20;8.90;;;3.90;99.90;;;;;;5103638;28;20225;-82
2021/12/20 05:16:10;;;;;;;9.23;8.93;;;3.90;99.90;;;;;;5103154;28;20241;-81
2021/12/20 05:18:38;;;;;;;9.30;9.00;;;3.90;99.90;;;;;;5114905;28;20233;-82
2021/12/20 05:21:06;;;;;;;9.70;9.40;;;3.80;99.90;;;;;;5115909;28;20241;-83
2021/12/20 05:23:34;;;;;;;9.73;9.43;;;3.60;99.90;;;;;;5114824;28;20280;-82
2021/12/20 05:26:03;;;;;;;9.60;9.30;;;3.40;99.90;;;;;;5106056;28;20225;-82
2021/12/20 05:28:30;;;;;;;9.70;9.40;;;3.30;99.90;;;;;;5106284;28;20229;-82
2021/12/20 05:30:58;;;;;;;9.80;9.50;;;3.20;99.90;;;;;;5108349;28;20279;-82
2021/12/20 05:33:26;;;;;;;9.57;9.27;;;3.00;99.90;;;;;;5118527;28;20213;-79
2021/12/20 05:35:55;;;;;;;9.60;9.30;;;3.00;99.90;;;;;;5117832;28;20222;-79
2021/12/20 05:38:22;;;;;;;9.70;9.40;;;3.00;99.90;;;;;;5114925;28;20291;-82
2021/12/20 05:40:50;;;;;;;9.63;9.33;;;3.00;99.90;;;;;;5105465;28;20233;-82
2021/12/20 05:43:19;;;;;;;9.70;9.40;;;3.00;99.90;;;;;;5104956;28;20233;-82
2021/12/20 05:45:47;;;;;;;10.00;9.70;;;3.10;99.90;;;;;;5104488;28;20282;-82
2021/12/20 05:48:14;;;;;;;9.90;9.60;;;3.10;99.90;;;;;;5103994;28;20229;-83
2021/12/20 05:50:42;;;;;;;10.10;9.80;;;3.10;99.90;;;;;;5104191;28;20278;-82
2021/12/20 05:53:10;;;;;;;9.80;9.50;;;3.10;99.90;;;;;;5104312;28;20259;-82
2021/12/20 05:55:38;;;;;;;9.77;9.47;;;3.00;99.90;;;;;;5103380;28;20225;-82
2021/12/20 05:58:06;;;;;;;9.70;9.40;;;2.90;99.90;;;;;;5103950;28;20228;-82
2021/12/20 06:00:35;;;;;;;9.90;9.60;;;2.80;99.90;;;;;;5103499;28;20231;-82
2021/12/20 06:03:03;;;;;;;9.80;9.50;;;2.80;99.90;;;;;;5102768;28;20234;-82
2021/12/20 06:05:31;;;;;;;9.80;9.50;;;2.80;99.90;;;;;;5103205;28;20287;-82
2021/12/20 06:07:59;;;;;;;9.70;9.40;;;2.80;99.90;;;;;;5104015;28;20260;-82
2021/12/20 06:10:26;;;;;;;9.70;9.40;;;2.70;99.90;;;;;;5113843;28;20218;-79
2021/12/20 06:12:54;;;;;;;9.90;9.60;;;2.70;99.90;;;;;;5116351;28;20280;-82
2021/12/20 06:15:22;;;;;;;10.13;9.83;;;2.60;99.90;;;;;;5101526;28;20249;-82
2021/12/20 06:17:51;;;;;;;10.00;9.70;;;2.60;99.90;;;;;;5106609;28;20241;-83
2021/12/20 06:20:19;;;;;;;9.90;9.60;;;2.60;99.90;;;;;;5102863;28;20229;-83
2021/12/20 06:22:47;;;;;;;10.00;9.70;;;2.60;99.90;;;;;;5101327;28;20239;-83
2021/12/20 06:25:16;;;;;;;9.90;9.60;;;2.50;99.90;;;;;;5100949;28;20226;-83
2021/12/20 06:27:44;;;;;;;10.00;9.70;;;2.50;99.90;;;;;;5103864;28;20320;-83
2021/12/20 06:30:13;;;;;;;9.97;9.67;;;2.50;99.90;;;;;;5101650;28;20229;-82
2021/12/20 06:32:44;;;;;;;9.87;9.57;;;2.60;99.90;;;;;;5108889;28;20279;-82
2021/12/20 06:35:14;;;;;;;9.90;9.60;;;2.50;99.90;;;;;;5110959;28;20291;-83
2021/12/20 06:37:43;;;;;;;9.80;9.50;;;2.50;99.90;;;;;;5112024;28;20245;-83
2021/12/20 06:40:12;;;;;;;9.93;9.63;;;2.50;99.90;;;;;;5112414;28;20229;-82
2021/12/20 06:42:40;;;;;;;10.00;9.70;;;2.40;99.90;;;;;;5105558;28;20229;-83
2021/12/20 06:45:09;;;;;;;9.67;9.37;;;2.40;99.90;;;;;;5103961;28;20241;-83
2021/12/20 06:47:37;;;;;;;10.07;9.77;;;2.30;99.90;;;;;;5138808;22;20239;-80
2021/12/20 06:50:06;;;;;;;10.40;10.10;;;2.30;99.90;;;;;;5132465;27;20224;-80
2021/12/20 06:52:35;;;;;;;10.60;10.30;;;2.30;99.90;;;;;;5130231;27;20239;-81
2021/12/20 06:55:02;;;;;;;10.30;10.00;;;2.20;99.90;;;;;;5121878;28;20224;-80
2021/12/20 06:57:30;;;;;;;10.47;10.17;;;2.20;99.90;;;;;;5145613;27;20281;-80
2021/12/20 07:00:00;;;;;;;10.70;10.40;;;2.10;99.90;;;;;;5154758;27;20223;-80
2021/12/20 07:02:28;;;;;;;11.10;10.70;;;2.00;99.90;;;;;;5150531;27;20248;-80
2021/12/20 07:04:56;;;;;;;10.47;10.17;;;1.90;99.90;;;;;;5151465;27;20238;-80
2021/12/20 07:07:23;;;;;;;10.60;10.30;;;1.90;99.90;;;;;;5149964;27;20242;-80
2021/12/20 07:09:53;;;;;;;10.60;10.30;;;1.90;99.90;;;;;;5150984;27;20250;-79
2021/12/20 07:12:20;;;;;;;10.57;10.27;;;1.90;99.90;;;;;;5149537;27;20236;-79
2021/12/20 07:14:50;;;;;;;10.47;10.17;;;1.90;99.90;;;;;;5149034;27;20219;-80
2021/12/20 07:17:18;;;;;;;10.40;10.10;;;1.90;99.90;;;;;;5149402;27;20224;-80
2021/12/20 07:19:46;;;;;;;10.67;10.37;;;1.90;99.90;;;;;;5151632;27;20254;-80
2021/12/20 07:22:14;;;;;;;10.53;10.23;;;1.90;99.90;;;;;;5150400;27;20372;-80
2021/12/20 07:24:42;;;;;;;10.50;10.20;;;1.90;99.90;;;;;;5147994;27;20377;-81
2021/12/20 07:27:12;;;;;;;10.67;10.37;;;1.90;99.90;;;;;;5148530;27;20224;-81
2021/12/20 07:29:40;;;;;;;10.33;10.03;;;2.00;99.90;;;;;;5149545;27;20226;-81
2021/12/20 07:32:08;;;;;;;10.43;10.13;;;2.00;99.90;;;;;;5148627;27;20240;-81
2021/12/20 07:34:36;;;;;;;10.40;10.10;;;2.10;99.90;;;;;;5157465;27;20240;-81
2021/12/20 07:37:04;;;;;;;10.33;10.03;;;2.10;99.90;;;;;;5159633;27;20224;-81
2021/12/20 07:39:32;;;;;;;10.50;10.20;;;2.20;99.90;;;;;;5156851;27;20231;-82
2021/12/20 07:42:00;;;;;;;10.50;10.20;;;2.20;99.90;;;;;;5158676;27;20258;-81
2021/12/20 07:44:29;;;;;;;10.40;10.10;;;2.20;99.90;;;;;;5158547;27;20287;-85
2021/12/20 07:46:56;;;;;;;10.37;10.07;;;2.10;99.90;;;;;;5159036;27;20223;-84
2021/12/20 07:49:24;;;;;;;10.57;10.27;;;2.10;99.90;;;;;;5159676;27;20232;-83
2021/12/20 07:51:53;;;;;;;10.70;10.40;;;2.10;99.90;;;;;;5159729;27;20224;-83
2021/12/20 07:54:22;;;;;;;10.70;10.40;;;1.90;99.90;;;;;;5160034;27;20274;-84
2021/12/20 07:56:50;;;;;;;11.10;10.70;;;1.90;99.90;;;;;;5159847;27;20216;-83
2021/12/20 07:59:18;;;;;;;10.80;10.50;;;2.00;99.90;;;;;;5158327;27;21193;-84
2021/12/20 08:01:48;;;;;;;10.60;10.30;;;2.00;99.90;;;;;;5159543;27;20232;-83
2021/12/20 08:04:15;;;;;;;10.17;9.87;;;2.10;99.90;;;;;;5158937;27;20224;-83
2021/12/20 08:06:44;;;;;;;10.30;10.00;;;2.10;99.90;;;;;;5159550;27;20244;-83
2021/12/20 08:09:12;;;;;;;10.40;10.10;;;2.10;99.90;;;;;;5159870;27;20295;-84
2021/12/20 08:11:40;;;;;;;10.50;10.20;;;2.20;99.90;;;;;;5160234;27;20272;-85
2021/12/20 08:14:07;;;;;;;10.50;10.20;;;2.30;99.90;;;;;;5160411;27;20219;-84
2021/12/20 08:16:35;;;;;;;10.83;10.53;;;2.30;99.90;;;;;;5159934;27;20228;-84
2021/12/20 08:19:05;;;;;;;10.60;10.30;;;2.40;99.90;;;;;;5157761;27;20216;-83
2021/12/20 08:21:32;;;;;;;10.67;10.37;;;2.40;99.90;;;;;;5160673;27;20224;-83
2021/12/20 08:24:00;;;;;;;10.47;10.17;;;2.30;99.90;;;;;;5160276;27;20228;-84
2021/12/20 08:26:28;;;;;;;10.73;10.43;;;2.30;99.90;;;;;;5160013;27;20276;-83
2021/12/20 08:28:55;;;;;;;11.00;10.60;;;2.40;99.90;;;;;;5159833;27;20227;-85
2021/12/20 08:31:23;;;;;;;11.07;10.67;;;2.30;99.90;;;;;;5159757;27;20216;-83
2021/12/20 08:33:51;;;;;;;10.80;10.50;;;2.40;99.90;;;;;;5159424;27;20296;-83
2021/12/20 08:36:21;;;;;;;10.97;10.60;;;2.50;99.90;;;;;;5160091;27;20276;-84
2021/12/20 08:38:49;;;;;;;11.20;10.80;;;2.60;99.90;;;;;;5160233;27;20216;-84
2021/12/20 08:41:17;;;;;;;10.80;10.50;;;2.70;99.90;;;;;;5154236;27;20232;-84
2021/12/20 08:43:45;;;;;;;11.20;10.80;;;2.90;99.90;;;;;;5142098;27;20228;-84
2021/12/20 08:46:15;;;;;;;11.10;10.70;;;3.10;99.90;;;;;;5139891;27;20246;-86
2021/12/20 08:48:48;;;;;;;10.63;10.33;;;3.30;99.90;;;;;;5143788;27;20224;-87
2021/12/20 08:51:16;;;;;;;10.00;9.70;;;3.50;99.90;;;;;;5142857;27;20213;-83
2021/12/20 08:53:45;;;;;;;9.90;9.60;;;3.70;99.90;;;;;;5142613;27;20228;-82
2021/12/20 08:56:13;;;;;;;9.80;9.50;;;3.90;99.90;;;;;;5152377;27;20217;-84
2021/12/20 08:58:40;;;;;;;9.40;9.10;;;4.10;99.90;;;;;;5147913;27;20766;-84
2021/12/20 09:01:08;;;;;;;9.37;9.07;;;4.30;99.90;;;;;;5147526;27;20317;-82
2021/12/20 09:03:36;;;;;;;9.30;9.00;;;4.50;99.90;;;;;;5145541;27;20232;-82
2021/12/20 09:06:04;;;;;;;9.30;9.00;;;4.60;99.90;;;;;;5144895;27;20232;-82
2021/12/20 09:08:34;;;;;;;9.27;8.97;;;4.70;99.90;;;;;;5144566;27;20224;-82
2021/12/20 09:11:03;;;;;;;9.37;9.07;;;4.80;99.90;;;;;;5145067;27;20231;-82
2021/12/20 09:13:30;;;;;;;9.17;8.87;;;4.90;99.90;;;;;;5148741;27;20228;-82
2021/12/20 09:15:59;;;;;;;9.47;9.17;;;5.10;99.90;;;;;;5144270;27;20216;-82
2021/12/20 09:18:27;;;;;;;9.40;9.10;;;5.20;99.90;;;;;;5143770;27;20236;-83
2021/12/20 09:20:55;;;;;;;9.20;8.90;;;5.40;99.90;;;;;;5143802;27;20228;-82
2021/12/20 09:23:26;;;;;;;9.30;9.00;;;5.50;99.90;;;;;;5142841;27;20388;-83
2021/12/20 09:25:54;;;;;;;8.90;8.70;;;5.50;99.90;;;;;;5142643;27;20220;-83
2021/12/20 09:28:23;;;;;;;9.20;8.90;;;5.60;99.90;;;;;;5143873;27;20228;-82
2021/12/20 09:30:50;;;;;;;9.20;8.90;;;5.70;99.90;;;;;;5145378;27;20240;-81
2021/12/20 09:33:18;;;;;;;8.70;8.50;;;5.90;99.90;;;;;;5150544;27;20224;-81
2021/12/20 09:35:46;;;;;;;8.90;8.70;;;6.10;99.90;;;;;;5149133;27;20223;-81
2021/12/20 09:38:17;;;;;;;8.93;8.73;;;6.20;99.90;;;;;;5143544;27;20257;-82
2021/12/20 09:41:12;;;;;;;8.57;8.37;;;6.40;99.90;;;;;;5144436;27;20242;-82
2021/12/20 09:43:39;;;;;;;8.80;8.60;;;6.60;99.90;;;;;;5140940;27;20227;-83
2021/12/20 09:46:07;;;;;;;8.60;8.40;;;6.80;99.90;;;;;;5138312;27;20232;-82
2021/12/20 09:48:35;;;;;;;8.70;8.50;;;6.80;99.90;;;;;;5143559;27;20231;-82
2021/12/20 09:51:04;;;;;;;8.67;8.47;;;6.80;99.90;;;;;;5145270;27;20260;-82
2021/12/20 09:53:32;;;;;;;9.10;8.80;;;6.60;99.90;;;;;;5144434;27;20732;-82
2021/12/20 09:56:02;;;;;;;8.83;8.63;;;6.60;99.90;;;;;;5143147;27;20246;-84
2021/12/20 09:58:37;;;;;;;9.07;8.87;;;6.70;99.90;;;;;;5142793;27;20236;-83
2021/12/20 10:01:07;;;;;;;8.83;8.63;;;6.80;99.90;;;;;;5143834;27;20253;-83
2021/12/20 10:03:35;;;;;;;8.73;8.53;;;6.80;99.90;;;;;;5147572;27;20224;-83
2021/12/20 10:06:04;;;;;;;9.00;8.80;;;6.80;99.90;;;;;;5149437;27;20212;-81
2021/12/20 10:08:34;;;;;;;9.00;8.80;;;6.90;99.90;;;;;;5149281;27;20228;-85
2021/12/20 10:11:04;;;;;;;9.10;8.80;;;7.00;99.90;;;;;;5149616;27;20238;-81
2021/12/20 10:13:34;;;;;;;9.30;9.00;;;7.10;99.90;;;;;;5149084;27;20322;-82
2021/12/20 10:16:19;;;;;;;9.20;8.90;;;7.30;99.90;;;;;;5148844;27;20224;-81
2021/12/20 10:18:47;;;;;;;9.50;9.20;;;7.40;99.90;;;;;;5147350;27;20277;-81
2021/12/20 10:21:18;;;;;;;9.37;9.07;;;7.40;99.90;;;;;;5148502;27;20224;-81
2021/12/20 10:23:48;;;;;;;9.67;9.37;;;7.40;99.90;;;;;;5147464;27;20232;-81
2021/12/20 10:26:20;;;;;;;9.40;9.10;;;7.60;99.90;;;;;;5146139;27;20224;-81
2021/12/20 10:28:52;;;;;;;9.47;9.17;;;7.80;99.90;;;;;;5147063;27;20257;-83
2021/12/20 10:31:23;;;;;;;9.53;9.23;;;7.90;99.90;;;;;;5147313;27;20238;-82
2021/12/20 10:33:57;;;;;;;9.50;9.20;;;7.90;99.90;;;;;;5146765;27;20262;-82
2021/12/20 10:36:25;;;;;;;9.50;9.20;;;7.90;99.90;;;;;;5146462;27;20293;-82
2021/12/20 10:38:56;;;;;;;9.40;9.10;;;7.90;99.90;;;;;;5147245;27;20308;-82
2021/12/20 10:41:33;;;;;;;9.17;8.87;;;7.80;99.90;;;;;;5147541;27;20231;-81
2021/12/20 10:44:14;;;;;;;9.80;9.50;;;7.90;99.90;;;;;;5147669;27;20255;-82
2021/12/20 10:46:48;;;;;;;9.90;9.60;;;7.90;99.90;;;;;;5147143;27;20232;-83
2021/12/20 10:49:18;;;;;;;9.50;9.20;;;8.00;99.90;;;;;;5148026;27;20223;-82
2021/12/20 10:51:49;;;;;;;9.47;9.17;;;8.10;99.90;;;;;;5156327;27;20228;-82
2021/12/20 10:54:21;;;;;;;9.30;9.00;;;8.30;99.90;;;;;;5148719;27;20274;-81
2021/12/20 10:56:53;;;;;;;9.63;9.33;;;8.20;99.90;;;;;;5148512;27;20219;-82
2021/12/20 10:59:23;;;;;;;9.60;9.30;;;8.10;99.90;;;;;;5148110;27;20228;-82
2021/12/20 11:02:46;;;;;;;9.80;9.50;;;8.00;99.90;;;;;;5146772;27;20232;-82
2021/12/20 11:04:57;;;;;;;10.03;9.73;;;8.00;99.90;;;;;;5146381;27;20243;-82
2021/12/20 11:10:12;;;;;;;9.80;9.50;;;8.20;99.90;;;;;;5128486;27;20216;-82
2021/12/20 11:12:42;;;;;;;9.80;9.50;;;7.90;99.90;;;;;;5147033;27;20232;-82
2021/12/20 11:15:13;;;;;;;10.23;9.93;;;7.80;99.90;;;;;;5147493;27;20219;-82
2021/12/20 11:17:46;;;;;;;10.10;9.80;;;7.90;99.90;;;;;;5146013;27;20220;-82
2021/12/20 11:20:20;;;;;;;9.73;9.43;;;8.10;99.90;;;;;;5148020;27;20273;-82
2021/12/20 11:22:48;;;;;;;9.60;9.30;;;8.20;99.90;;;;;;5147389;27;20223;-81
2021/12/20 11:25:16;;;;;;;9.90;9.60;;;8.00;99.90;;;;;;5156724;27;20294;-82
2021/12/20 11:27:51;;;;;;;9.87;9.57;;;8.10;99.90;;;;;;5151144;27;20228;-82
2021/12/20 11:30:22;;;;;;;9.73;9.43;;;8.20;99.90;;;;;;5149122;27;20284;-82
2021/12/20 11:32:52;;;;;;;9.80;9.50;;;8.50;99.90;;;;;;5149636;27;20364;-82
2021/12/20 11:35:22;;;;;;;10.20;9.90;;;8.80;99.90;;;;;;5152397;27;20220;-82
2021/12/20 11:37:52;;;;;;;10.27;9.97;;;9.00;99.90;;;;;;5154692;27;20289;-82
2021/12/20 11:40:21;;;;;;;10.50;10.20;;;9.20;99.90;;;;;;5150928;27;20254;-81
2021/12/20 11:42:50;;;;;;;9.90;9.60;;;9.40;99.90;;;;;;5148201;27;20232;-82
2021/12/20 11:45:19;;;;;;;10.03;9.73;;;9.60;99.90;;;;;;5147782;27;20234;-82
2021/12/20 11:47:55;;;;;;;10.10;9.80;;;9.70;99.90;;;;;;5147461;27;20224;-82
2021/12/20 11:50:31;;;;;;;9.80;9.50;;;9.60;99.90;;;;;;5146965;27;20232;-82
2021/12/20 11:53:07;;;;;;;10.00;9.70;;;9.80;99.90;;;;;;5147387;27;20231;-82
2021/12/20 11:55:35;;;;;;;9.87;9.57;;;9.80;99.90;;;;;;5147421;27;20230;-82
2021/12/20 11:58:05;;;;;;;10.30;10.00;;;10.00;99.90;;;;;;5147354;27;20238;-82
2021/12/20 12:00:34;;;;;;;10.20;9.90;;;10.00;99.90;;;;;;5146215;27;20232;-82
2021/12/20 12:03:08;;;;;;;9.93;9.63;;;10.40;99.90;;;;;;5146253;27;20232;-82
2021/12/20 12:05:43;;;;;;;9.97;9.67;;;10.50;99.90;;;;;;5146306;27;20308;-82
2021/12/20 12:08:36;;;;;;;9.77;9.47;;;10.30;99.90;;;;;;5146225;27;20231;-81
2021/12/20 12:11:34;;;;;;;9.80;9.50;;;10.30;99.90;;;;;;5154137;27;20243;-81
2021/12/20 12:17:09;;;;;;;9.30;9.00;;;10.40;99.90;;;;;;5130474;27;20232;-82
2021/12/20 12:19:50;;;;;;;9.50;9.20;;;10.40;99.90;;;;;;5154577;27;20234;-81
2021/12/20 12:22:37;;;;;;;9.77;9.47;;;10.50;99.90;;;;;;5151930;27;20277;-81
2021/12/20 12:25:09;;;;;;;9.60;9.30;;;10.40;99.90;;;;;;5153220;27;20297;-81
2021/12/20 12:27:40;;;;;;;9.23;8.93;;;10.50;99.90;;;;;;5156237;27;20323;-81
2021/12/20 12:30:47;;;;;;;8.87;8.67;;;10.50;99.90;;;;;;5150913;27;20224;-82
2021/12/20 12:33:38;;;;;;;9.13;8.90;;;10.00;99.90;;;;;;5145790;27;20262;-82
2021/12/20 12:36:31;;;;;;;9.27;8.97;;;9.90;99.90;;;;;;5148099;27;20232;-83
2021/12/20 12:39:02;;;;;;;9.13;8.83;;;10.00;99.90;;;;;;5147241;27;20297;-82
2021/12/20 12:41:32;;;;;;;9.70;9.40;;;10.30;99.90;;;;;;5155034;27;20250;-82
2021/12/20 12:44:09;;;;;;;9.87;9.57;;;10.60;99.90;;;;;;5157231;27;20242;-82
2021/12/20 13:07:19;;;;;;;;;;;;;;;;;;;;;
2021/12/20 13:18:08;;;;;;;10.20;9.90;;;9.60;99.90;;;;;;5117734;27;20327;-82
2021/12/20 13:24:18;;;;;;;9.60;9.30;;;9.60;99.90;;;;;;5120363;27;20228;-82
2021/12/20 13:30:54;;;;;;;9.80;9.50;;;9.60;99.90;;;;;;5122873;28;20213;-83
2021/12/20 13:41:13;;;;;;;9.80;9.50;;;9.50;99.90;;;;;;5109010;28;20235;-81
2021/12/20 13:59:13;;;;;;;9.77;9.47;;;10.00;99.90;;;;;;5139862;27;20228;-83
2021/12/20 14:02:16;;;;;;;9.90;9.60;;;9.70;99.90;;;;;;5141574;27;20209;-82
2021/12/20 14:05:00;;;;;;;9.73;9.43;;;9.70;99.90;;;;;;5142217;27;20308;-83
2021/12/20 14:08:01;;;;;;;9.90;9.60;;;9.70;99.90;;;;;;5141946;27;20236;-82
2021/12/20 14:17:22;;;;;;;8.97;8.77;;;10.00;99.90;;;;;;5096166;28;20225;-82
2021/12/20 14:20:24;;;;;;;9.20;8.90;;;10.20;99.90;;;;;;5103028;28;20592;-82
2021/12/20 14:25:42;;;;;;;9.33;9.03;;;10.80;99.90;;;;;;5119458;28;20221;-82
2021/12/20 14:28:21;;;;;;;9.20;8.90;;;11.10;99.90;;;;;;5127965;27;20232;-82
2021/12/20 14:30:57;;;;;;;8.73;8.53;;;11.20;99.90;;;;;;5138975;27;20284;-82
2021/12/20 14:33:36;;;;;;;8.67;8.47;;;11.30;99.90;;;;;;5141213;27;20258;-82
2021/12/20 14:36:14;;;;;;;9.70;9.40;;;11.40;99.90;;;;;;5141519;27;20721;-83
2021/12/20 14:38:45;;;;;;;9.80;9.50;;;11.50;99.90;;;;;;5142076;27;20333;-82